Time;durP1;ratioP1;P1;durP2;ratioP2;P2;SDS_P1;SDS_P2;PMS_P1;PMS_P2;Temp;Humidity;BMP_temperature;BMP_pressure;BME280_temperature;BME280_humidity;BME280_pressure;Samples;Min_cycle;Max_cycle;Signal;HPM_P1;HPM_P2
2022/04/06 00:02:15;;;;;;;9.73;8.23;;;;;;;9.52;87.42;99508.53;5018687;28;20234;-78
2022/04/06 00:04:40;;;;;;;9.70;8.60;;;;;;;9.55;88.08;99510.25;5019557;28;20205;-78
2022/04/06 00:07:06;;;;;;;9.70;8.70;;;;;;;9.55;87.64;99507.66;5018901;28;20221;-78
2022/04/06 00:09:31;;;;;;;10.70;9.20;;;;;;;10.23;86.43;99500.22;5018827;28;20555;-77
2022/04/06 00:11:57;;;;;;;10.10;8.77;;;;;;;9.86;86.75;99515.28;5019293;28;20171;-78
2022/04/06 00:14:22;;;;;;;11.50;8.80;;;;;;;9.90;86.45;99507.44;5018969;28;20218;-78
2022/04/06 00:16:47;;;;;;;10.10;8.90;;;;;;;9.55;87.30;99511.16;5018057;28;20171;-77
2022/04/06 00:19:13;;;;;;;9.40;8.33;;;;;;;9.66;87.76;99508.47;5019045;28;20171;-80
2022/04/06 00:21:38;;;;;;;10.10;8.83;;;;;;;9.85;86.99;99504.00;5018177;28;20221;-79
2022/04/06 00:24:04;;;;;;;10.53;9.40;;;;;;;9.76;87.04;99510.13;5018973;28;20548;-78
2022/04/06 00:26:29;;;;;;;10.20;9.17;;;;;;;9.76;87.09;99498.84;5018855;28;20163;-77
2022/04/06 00:28:54;;;;;;;11.03;9.43;;;;;;;10.22;86.08;99498.47;5018799;28;20178;-79
2022/04/06 00:31:20;;;;;;;10.87;9.20;;;;;;;9.66;86.98;99505.88;5018367;28;20257;-79
2022/04/06 00:33:45;;;;;;;9.27;8.20;;;;;;;9.60;87.21;99505.91;5018960;28;20212;-75
2022/04/06 00:36:10;;;;;;;10.70;9.60;;;;;;;9.82;87.41;99506.59;5021994;28;20171;-77
2022/04/06 00:38:36;;;;;;;11.10;10.00;;;;;;;9.65;87.98;99498.06;5022253;28;20179;-78
2022/04/06 00:41:01;;;;;;;9.30;8.37;;;;;;;9.73;87.49;99502.34;5023019;28;20173;-78
2022/04/06 00:43:26;;;;;;;11.17;9.47;;;;;;;9.67;87.66;99498.91;5022245;28;20217;-78
2022/04/06 00:45:52;;;;;;;10.87;9.70;;;;;;;9.89;87.34;99494.41;5022290;28;20210;-78
2022/04/06 00:48:17;;;;;;;10.60;8.97;;;;;;;10.44;85.92;99491.38;5021871;28;20206;-78
2022/04/06 00:50:42;;;;;;;10.10;9.10;;;;;;;10.11;86.42;99493.38;5022379;28;20213;-80
2022/04/06 00:53:08;;;;;;;12.60;10.07;;;;;;;9.95;86.75;99491.78;5022519;28;20507;-77
2022/04/06 00:55:37;;;;;;;9.77;8.37;;;;;;;9.62;86.99;99498.97;5022229;28;20198;-80
2022/04/06 00:58:03;;;;;;;9.97;8.73;;;;;;;9.88;87.21;99492.72;5021303;28;20190;-78
2022/04/06 01:00:29;;;;;;;9.93;8.93;;;;;;;9.91;86.76;99483.13;5022036;28;20410;-78
2022/04/06 01:02:54;;;;;;;10.70;8.53;;;;;;;9.74;86.65;99487.59;5021654;28;20489;-79
2022/04/06 01:05:20;;;;;;;8.90;7.83;;;;;;;9.74;86.95;99493.66;5022217;28;20424;-80
2022/04/06 01:07:50;;;;;;;9.50;8.47;;;;;;;9.91;86.72;99485.72;5022479;28;20182;-80
2022/04/06 01:10:16;;;;;;;10.73;8.90;;;;;;;9.91;86.44;99483.13;5022231;28;20199;-80
2022/04/06 01:12:44;;;;;;;9.03;7.73;;;;;;;9.83;86.67;99489.28;5021235;28;20866;-80
2022/04/06 01:15:11;;;;;;;9.40;7.53;;;;;;;9.75;86.53;99489.31;5022090;28;20450;-79
2022/04/06 01:17:36;;;;;;;10.27;8.97;;;;;;;9.75;87.50;99494.53;5021441;28;20418;-78
2022/04/06 01:20:05;;;;;;;9.33;8.43;;;;;;;10.05;86.73;99496.03;5021946;28;20844;-79
2022/04/06 01:22:30;;;;;;;9.77;8.43;;;;;;;10.10;86.65;99494.25;5022373;28;20527;-81
2022/04/06 01:24:56;;;;;;;9.80;8.03;;;;;;;9.72;87.04;99498.00;5022152;28;20406;-81
2022/04/06 01:27:21;;;;;;;9.30;7.47;;;;;;;9.69;87.19;99487.63;5021834;28;20167;-81
2022/04/06 01:29:48;;;;;;;9.23;7.97;;;;;;;9.78;87.30;99494.50;5022351;28;20222;-79
2022/04/06 01:32:17;;;;;;;9.10;7.97;;;;;;;9.78;87.47;99497.97;5021912;28;20171;-80
2022/04/06 01:34:43;;;;;;;8.30;7.50;;;;;;;9.89;86.69;99494.41;5021530;28;20462;-80
2022/04/06 01:37:10;;;;;;;8.30;7.30;;;;;;;9.96;86.49;99498.72;5022034;28;20720;-79
2022/04/06 01:39:37;;;;;;;8.43;7.53;;;;;;;9.92;85.47;99486.59;5004810;28;20750;-79
2022/04/06 01:42:05;;;;;;;8.80;7.30;;;;;;;9.88;85.67;99490.09;5021574;28;20464;-80
2022/04/06 01:44:31;;;;;;;8.50;6.90;;;;;;;10.23;85.51;99481.13;5022349;28;20398;-78
2022/04/06 01:46:56;;;;;;;9.57;6.93;;;;;;;10.04;85.87;99488.22;5020459;28;20452;-78
2022/04/06 01:52:17;;;;;;;7.60;6.80;;;;;;;9.77;86.17;99477.16;5020884;28;20181;-79
2022/04/06 01:54:54;;;;;;;7.10;6.27;;;;;;;9.85;85.62;99492.72;5020768;28;20453;-77
2022/04/06 01:57:20;;;;;;;6.83;6.23;;;;;;;9.35;86.54;99485.25;5020543;28;20437;-78
2022/04/06 01:59:46;;;;;;;6.57;5.97;;;;;;;9.87;86.04;99478.81;5020380;28;20460;-77
2022/04/06 02:02:15;;;;;;;6.53;5.63;;;;;;;9.34;87.05;99480.06;5019510;28;20929;-78
2022/04/06 02:04:41;;;;;;;6.30;5.70;;;;;;;10.09;85.78;99479.50;5003313;28;20414;-77
2022/04/06 02:07:09;;;;;;;7.37;6.67;;;;;;;9.65;85.20;99485.91;5020530;28;20402;-77
2022/04/06 02:09:36;;;;;;;6.00;5.50;;;;;;;9.72;85.00;99479.78;5019988;28;20426;-78
2022/04/06 02:12:01;;;;;;;5.97;5.47;;;;;;;10.05;85.05;99480.41;5020498;28;20414;-77
2022/04/06 02:14:27;;;;;;;9.60;6.37;;;;;;;9.94;83.58;99474.41;5019951;28;20856;-77
2022/04/06 02:16:52;;;;;;;6.50;5.87;;;;;;;9.67;83.66;99480.69;5020532;28;20166;-78
2022/04/06 02:19:17;;;;;;;6.70;6.10;;;;;;;9.67;84.68;99484.16;5019909;28;20167;-79
2022/04/06 02:21:42;;;;;;;8.73;5.97;;;;;;;10.01;83.11;99475.22;5020769;28;20222;-77
2022/04/06 02:24:08;;;;;;;6.37;5.77;;;;;;;9.55;84.24;99463.44;5020233;28;20175;-78
2022/04/06 02:26:33;;;;;;;6.67;5.93;;;;;;;9.92;83.45;99460.56;5019837;28;20167;-80
2022/04/06 02:29:01;;;;;;;7.63;6.20;;;;;;;9.83;83.42;99468.44;5020874;28;20543;-77
2022/04/06 02:31:27;;;;;;;6.43;5.80;;;;;;;10.02;82.78;99461.34;5019363;28;20525;-78
2022/04/06 02:33:52;;;;;;;6.77;6.17;;;;;;;9.65;83.27;99461.63;5020396;28;20424;-79
2022/04/06 02:36:17;;;;;;;7.83;6.63;;;;;;;9.76;83.89;99465.88;5019760;28;20221;-77
2022/04/06 02:38:43;;;;;;;6.90;6.20;;;;;;;9.72;83.58;99464.19;5019851;28;20213;-77
2022/04/06 02:41:09;;;;;;;8.03;7.23;;;;;;;9.70;84.41;99458.13;5019834;28;20167;-76
2022/04/06 02:43:37;;;;;;;7.60;6.80;;;;;;;9.70;84.63;99458.13;5020628;28;20806;-78
2022/04/06 02:46:03;;;;;;;7.50;6.53;;;;;;;9.85;83.91;99461.47;5019002;28;20170;-76
2022/04/06 02:48:28;;;;;;;8.83;8.03;;;;;;;9.88;84.20;99461.47;5019450;28;20432;-76
2022/04/06 02:50:54;;;;;;;8.63;7.50;;;;;;;9.44;85.04;99463.50;5019472;28;20190;-78
2022/04/06 02:53:19;;;;;;;8.63;7.80;;;;;;;9.75;84.52;99458.94;5018964;28;20233;-77
2022/04/06 02:55:45;;;;;;;10.50;7.97;;;;;;;9.77;85.71;99449.41;5019685;28;20226;-77
2022/04/06 02:58:10;;;;;;;9.90;8.90;;;;;;;9.74;84.55;99451.16;5019324;28;20549;-78
2022/04/06 03:00:36;;;;;;;9.53;8.50;;;;;;;9.60;85.38;99457.31;5019557;28;20466;-75
2022/04/06 03:03:03;;;;;;;13.97;10.10;;;;;;;9.91;84.30;99444.06;5019048;28;20495;-76
2022/04/06 03:05:29;;;;;;;12.30;9.40;;;;;;;9.44;84.40;99453.09;5019636;28;20166;-76
2022/04/06 03:07:54;;;;;;;12.90;10.00;;;;;;;9.74;84.64;99446.81;5019165;28;20426;-78
2022/04/06 03:10:20;;;;;;;10.67;9.63;;;;;;;9.69;84.93;99448.59;5019530;28;20179;-79
2022/04/06 03:12:45;;;;;;;13.30;11.07;;;;;;;9.92;84.88;99450.16;5019362;28;20425;-76
2022/04/06 03:15:11;;;;;;;12.40;10.60;;;;;;;9.73;84.88;99450.28;5019360;28;20233;-79
2022/04/06 03:17:36;;;;;;;13.30;10.80;;;;;;;10.24;84.00;99448.97;5019479;28;20175;-77
2022/04/06 03:20:03;;;;;;;19.77;10.93;;;;;;;10.18;83.18;99446.44;5020151;28;20197;-78
2022/04/06 03:22:29;;;;;;;12.60;10.80;;;;;;;9.87;83.78;99439.75;5019231;28;20588;-77
2022/04/06 03:24:55;;;;;;;13.30;11.90;;;;;;;9.59;84.25;99444.31;5019394;28;20478;-78
2022/04/06 03:27:20;;;;;;;17.70;10.93;;;;;;;9.37;85.14;99447.06;5020040;28;20249;-78
2022/04/06 03:29:45;;;;;;;17.23;11.73;;;;;;;9.88;84.51;99444.09;5019293;28;20179;-77
2022/04/06 03:32:11;;;;;;;14.63;12.27;;;;;;;9.76;84.41;99439.84;5018670;28;20317;-78
2022/04/06 03:34:36;;;;;;;14.80;10.97;;;;;;;9.72;84.50;99443.34;5019351;28;20680;-79
2022/04/06 03:37:02;;;;;;;13.20;11.90;;;;;;;10.29;82.89;99432.41;5018807;28;20516;-77
2022/04/06 03:39:27;;;;;;;15.13;13.50;;;;;;;10.01;83.19;99429.25;5018459;28;20170;-77
2022/04/06 03:41:53;;;;;;;14.40;11.80;;;;;;;9.92;83.25;99430.19;5019645;28;20166;-79
2022/04/06 03:44:18;;;;;;;15.87;13.20;;;;;;;9.70;83.52;99428.63;5020659;28;20547;-77
2022/04/06 03:46:44;;;;;;;14.33;12.80;;;;;;;10.09;83.07;99430.03;5019176;28;20522;-78
2022/04/06 03:49:09;;;;;;;15.87;13.87;;;;;;;9.91;82.87;99425.84;5019788;28;20175;-78
2022/04/06 03:51:35;;;;;;;17.80;13.50;;;;;;;9.87;82.96;99424.16;5018901;28;20174;-77
2022/04/06 03:54:00;;;;;;;18.00;14.77;;;;;;;10.07;83.01;99429.19;5018776;28;20171;-76
2022/04/06 03:56:26;;;;;;;16.90;14.47;;;;;;;10.15;82.01;99420.41;5019353;28;20186;-77
2022/04/06 03:58:52;;;;;;;18.43;14.20;;;;;;;10.13;82.07;99420.44;5018933;28;20187;-76
2022/04/06 04:01:17;;;;;;;17.27;13.90;;;;;;;10.14;82.58;99413.50;5018613;28;20421;-76
2022/04/06 04:03:42;;;;;;;22.90;15.53;;;;;;;10.23;82.24;99413.41;5019173;28;20225;-76
2022/04/06 04:06:08;;;;;;;17.37;13.37;;;;;;;10.06;81.78;99417.03;5017849;28;20233;-76
2022/04/06 04:08:33;;;;;;;17.63;14.43;;;;;;;10.12;81.79;99416.13;5018691;28;20266;-76
2022/04/06 04:10:59;;;;;;;19.50;17.07;;;;;;;10.25;81.62;99412.50;5022537;28;20175;-76
2022/04/06 04:13:24;;;;;;;23.00;16.40;;;;;;;10.21;82.10;99402.97;5022428;28;20503;-76
2022/04/06 04:15:50;;;;;;;19.00;16.00;;;;;;;10.24;81.73;99405.59;5022298;28;20241;-76
2022/04/06 04:18:15;;;;;;;20.10;16.57;;;;;;;9.97;82.37;99411.91;5022914;28;20532;-76
2022/04/06 04:20:44;;;;;;;22.40;17.90;;;;;;;9.89;83.34;99403.31;5022532;28;20174;-76
2022/04/06 04:23:10;;;;;;;23.90;18.67;;;;;;;9.82;83.57;99396.44;5021245;28;20260;-77
2022/04/06 04:25:35;;;;;;;25.40;20.20;;;;;;;10.03;83.79;99396.22;5023102;28;20406;-77
2022/04/06 04:28:00;;;;;;;29.87;20.03;;;;;;;10.46;82.23;99394.97;5022453;28;20448;-78
2022/04/06 04:30:26;;;;;;;23.13;20.33;;;;;;;9.94;83.81;99396.31;5022150;28;20202;-77
2022/04/06 04:32:51;;;;;;;24.53;21.30;;;;;;;10.24;83.42;99399.50;5022967;28;20173;-78
2022/04/06 04:35:16;;;;;;;28.03;20.77;;;;;;;10.18;83.16;99402.19;5022139;28;20214;-77
2022/04/06 04:37:42;;;;;;;34.60;24.80;;;;;;;10.07;83.48;99403.13;5022675;28;20183;-76
2022/04/06 04:40:09;;;;;;;30.30;23.23;;;;;;;10.27;83.70;99400.34;5022440;28;20183;-76
2022/04/06 04:42:34;;;;;;;31.43;25.50;;;;;;;10.44;82.78;99401.91;5022164;28;20442;-78
2022/04/06 04:44:59;;;;;;;31.43;24.07;;;;;;;9.82;84.01;99399.03;5022301;28;20418;-78
2022/04/06 04:47:25;;;;;;;30.37;23.60;;;;;;;10.07;83.72;99405.75;5022408;28;20186;-77
2022/04/06 04:49:50;;;;;;;33.50;24.80;;;;;;;10.02;83.39;99402.31;5022058;28;20229;-78
2022/04/06 04:52:16;;;;;;;33.20;24.50;;;;;;;10.00;83.80;99408.41;5021646;28;20198;-77
2022/04/06 04:54:41;;;;;;;33.07;25.03;;;;;;;10.08;84.12;99402.25;5022519;28;20485;-76
2022/04/06 04:57:06;;;;;;;33.03;26.50;;;;;;;10.37;83.32;99395.91;5021438;28;20175;-77
2022/04/06 04:59:31;;;;;;;34.30;26.73;;;;;;;10.12;83.18;99390.09;5021886;28;20175;-76
2022/04/06 05:01:57;;;;;;;34.67;28.00;;;;;;;9.96;83.04;99399.78;5021555;28;20277;-77
2022/04/06 05:04:22;;;;;;;38.27;28.37;;;;;;;9.85;83.98;99388.59;5021530;28;20193;-76
2022/04/06 05:06:48;;;;;;;37.60;28.50;;;;;;;10.35;83.29;99389.88;5021684;28;20559;-77
2022/04/06 05:09:13;;;;;;;40.43;29.27;;;;;;;10.20;83.85;99387.38;5021357;28;20175;-76
2022/04/06 05:11:38;;;;;;;37.53;27.33;;;;;;;9.75;84.30;99396.47;5004367;28;20175;-76
2022/04/06 05:14:03;;;;;;;35.83;29.90;;;;;;;10.38;83.20;99387.22;5021826;28;20175;-78
2022/04/06 05:16:30;;;;;;;35.90;29.50;;;;;;;9.97;83.34;99396.28;5031416;28;20213;-77
2022/04/06 05:18:55;;;;;;;40.00;29.80;;;;;;;10.07;83.14;99386.66;5040787;28;20252;-76
2022/04/06 05:21:21;;;;;;;38.33;30.80;;;;;;;10.14;83.18;99393.53;5040377;28;20404;-77
2022/04/06 05:23:46;;;;;;;42.73;30.00;;;;;;;9.90;84.84;99390.28;5041064;28;20186;-77
2022/04/06 05:26:12;;;;;;;34.93;28.83;;;;;;;10.24;83.42;99383.88;5040824;28;20162;-78
2022/04/06 05:28:38;;;;;;;37.70;30.40;;;;;;;9.97;83.56;99370.25;5040625;28;20520;-76
2022/04/06 05:31:03;;;;;;;38.07;28.13;;;;;;;9.86;84.41;99378.16;5040644;28;20413;-78
2022/04/06 05:33:29;;;;;;;37.47;26.87;;;;;;;9.87;83.96;99386.84;5040601;28;20209;-78
2022/04/06 05:35:54;;;;;;;33.97;27.03;;;;;;;9.90;85.00;99384.22;5041532;28;20198;-77
2022/04/06 05:38:19;;;;;;;39.80;29.27;;;;;;;10.09;84.27;99385.78;5030506;28;20191;-76
2022/04/06 05:40:45;;;;;;;35.03;27.07;;;;;;;10.34;83.68;99382.03;5007137;28;20497;-77
2022/04/06 05:43:10;;;;;;;34.30;26.10;;;;;;;10.25;83.14;99375.19;5001412;28;20186;-77
2022/04/06 05:45:36;;;;;;;31.90;26.00;;;;;;;10.13;83.25;99375.31;5019676;28;20179;-77
2022/04/06 05:48:03;;;;;;;32.60;24.17;;;;;;;9.99;82.93;99381.53;5019951;28;20183;-77
2022/04/06 05:50:28;;;;;;;34.90;24.23;;;;;;;10.53;81.75;99380.13;5020691;28;20182;-76
2022/04/06 05:52:54;;;;;;;29.77;23.70;;;;;;;10.25;81.72;99383.00;5019893;28;20703;-78
2022/04/06 05:55:19;;;;;;;30.63;23.20;;;;;;;10.14;81.61;99372.69;5020464;28;20479;-77
2022/04/06 05:57:45;;;;;;;25.90;20.93;;;;;;;10.39;81.76;99373.31;5019108;28;20252;-76
2022/04/06 06:00:11;;;;;;;30.90;20.60;;;;;;;10.28;82.00;99373.41;5015477;28;20198;-76
2022/04/06 06:02:36;;;;;;;27.90;21.03;;;;;;;10.63;80.69;99368.69;5021811;28;20237;-75
2022/04/06 06:05:02;;;;;;;23.20;19.93;;;;;;;10.25;80.37;99369.97;5028722;28;20432;-79
2022/04/06 06:07:27;;;;;;;28.07;18.93;;;;;;;9.95;80.57;99379.81;5018539;28;20458;-77
2022/04/06 06:09:53;;;;;;;24.90;18.97;;;;;;;10.39;80.79;99370.72;5031507;28;20436;-77
2022/04/06 06:12:18;;;;;;;22.10;17.90;;;;;;;10.41;80.35;99365.47;5024005;28;20190;-77
2022/04/06 06:14:43;;;;;;;23.77;17.00;;;;;;;10.52;80.45;99368.81;5021318;28;20708;-69
2022/04/06 06:17:09;;;;;;;16.13;13.63;;;;;;;11.73;77.47;99369.66;5016728;28;20412;-69
2022/04/06 06:19:34;;;;;;;20.40;14.77;;;;;;;11.98;73.69;99354.44;5018970;28;20180;-73
2022/04/06 06:21:59;;;;;;;19.70;15.60;;;;;;;10.55;77.39;99368.78;5015944;28;20554;-75
2022/04/06 06:24:25;;;;;;;25.60;15.97;;;;;;;10.72;77.92;99365.97;5010870;28;20195;-73
2022/04/06 06:26:53;;;;;;;19.60;15.40;;;;;;;10.31;79.00;99364.69;5013642;28;20252;-77
2022/04/06 06:29:18;;;;;;;24.57;15.90;;;;;;;10.61;78.83;99368.69;5018588;28;20583;-75
2022/04/06 06:31:43;;;;;;;20.37;14.87;;;;;;;10.40;79.16;99363.75;5018793;28;20433;-71
2022/04/06 06:34:09;;;;;;;20.80;16.37;;;;;;;10.41;79.54;99345.50;5018836;28;20186;-75
2022/04/06 06:36:34;;;;;;;20.30;14.70;;;;;;;10.27;78.64;99352.59;5019492;28;20187;-73
2022/04/06 06:39:00;;;;;;;17.13;14.03;;;;;;;10.41;79.43;99348.09;5022534;28;20213;-74
2022/04/06 06:41:25;;;;;;;18.50;15.00;;;;;;;10.17;79.07;99362.22;5020325;28;20198;-75
2022/04/06 06:43:53;;;;;;;22.63;16.40;;;;;;;10.45;78.90;99339.34;5019622;28;20174;-76
2022/04/06 06:46:19;;;;;;;17.80;14.53;;;;;;;10.53;78.37;99335.81;5018218;28;20195;-76
2022/04/06 06:48:45;;;;;;;23.80;15.33;;;;;;;10.27;78.89;99334.38;5019769;28;20651;-75
2022/04/06 06:51:12;;;;;;;21.00;14.80;;;;;;;10.30;78.43;99336.94;5018021;28;20516;-75
2022/04/06 06:53:40;;;;;;;22.17;16.30;;;;;;;10.43;77.88;99335.03;5019381;28;20827;-74
2022/04/06 06:56:06;;;;;;;20.70;15.03;;;;;;;10.29;78.77;99345.59;5019380;28;20729;-76
2022/04/06 06:58:31;;;;;;;21.20;16.20;;;;;;;10.37;78.63;99328.19;5019107;28;20435;-74
2022/04/06 07:00:56;;;;;;;19.83;15.30;;;;;;;10.18;78.99;99347.50;5019134;28;20230;-74
2022/04/06 07:03:22;;;;;;;17.27;14.67;;;;;;;10.30;78.54;99347.34;5019207;28;20219;-74
2022/04/06 07:05:48;;;;;;;24.90;15.17;;;;;;;10.61;77.99;99323.53;5019040;28;20548;-74
2022/04/06 07:08:14;;;;;;;19.40;14.90;;;;;;;10.78;77.36;99338.94;5019491;28;20600;-76
2022/04/06 07:10:44;;;;;;;21.20;16.50;;;;;;;10.47;78.51;99328.06;5019292;28;20182;-77
2022/04/06 07:13:12;;;;;;;21.10;16.37;;;;;;;10.95;77.19;99320.47;5019169;28;20835;-76
2022/04/06 07:15:38;;;;;;;22.10;17.20;;;;;;;11.02;76.19;99322.06;5019430;28;20457;-77
2022/04/06 07:18:05;;;;;;;24.33;16.33;;;;;;;10.76;76.92;99335.50;5018461;28;20425;-78
2022/04/06 07:20:31;;;;;;;20.63;17.10;;;;;;;10.61;77.49;99328.75;5018939;28;20181;-79
2022/04/06 07:22:56;;;;;;;23.77;18.47;;;;;;;10.94;77.16;99316.97;5019251;28;20380;-78
2022/04/06 07:25:22;;;;;;;20.27;16.80;;;;;;;10.48;77.62;99321.97;5018882;28;20167;-79
2022/04/06 07:27:47;;;;;;;19.30;16.43;;;;;;;10.58;77.17;99319.22;5018782;28;20174;-77
2022/04/06 07:30:19;;;;;;;24.03;18.00;;;;;;;10.50;77.11;99322.81;5020171;28;20167;-74
2022/04/06 07:32:47;;;;;;;25.63;17.97;;;;;;;10.79;76.98;99322.41;5018227;28;20167;-79
2022/04/06 07:35:13;;;;;;;22.17;16.13;;;;;;;10.69;76.61;99320.81;5018903;28;20917;-76
2022/04/06 07:37:43;;;;;;;27.93;16.60;;;;;;;10.70;76.51;99325.16;5018982;28;20381;-76
2022/04/06 07:40:10;;;;;;;19.50;15.43;;;;;;;10.66;76.58;99318.25;5018950;28;20167;-76
2022/04/06 07:42:37;;;;;;;19.90;15.80;;;;;;;10.61;76.76;99315.72;5018073;28;20414;-77
2022/04/06 07:45:09;;;;;;;18.23;16.33;;;;;;;10.82;75.98;99313.69;5021684;28;20431;-80
2022/04/06 07:47:35;;;;;;;21.27;16.73;;;;;;;10.52;76.75;99316.69;5022580;28;20433;-77
2022/04/06 07:50:03;;;;;;;20.93;16.97;;;;;;;10.72;76.43;99315.59;5021905;28;20508;-77
2022/04/06 07:52:29;;;;;;;23.57;17.30;;;;;;;10.64;76.65;99302.66;5027928;28;20459;-79
2022/04/06 07:54:54;;;;;;;23.20;17.53;;;;;;;10.27;77.38;99305.72;5021071;28;20436;-76
2022/04/06 07:57:24;;;;;;;19.77;16.73;;;;;;;10.73;77.01;99307.72;5019494;28;20549;-78
2022/04/06 07:59:50;;;;;;;18.87;16.73;;;;;;;10.61;76.80;99326.16;5021636;28;20178;-78
2022/04/06 08:02:18;;;;;;;20.70;17.77;;;;;;;10.41;77.82;99319.44;5021903;28;20437;-77
2022/04/06 08:04:43;;;;;;;20.87;18.43;;;;;;;10.37;78.19;99314.31;5038050;28;20438;-77
2022/04/06 08:07:09;;;;;;;22.13;17.10;;;;;;;10.98;76.91;99323.00;5022679;28;20429;-78
2022/04/06 08:09:34;;;;;;;21.70;19.30;;;;;;;10.89;76.91;99320.53;5022319;28;20171;-76
2022/04/06 08:12:01;;;;;;;24.70;18.13;;;;;;;10.50;77.55;99323.69;5022702;28;20580;-79
2022/04/06 08:14:27;;;;;;;20.30;18.00;;;;;;;10.90;77.37;99322.25;5022585;28;20273;-77
2022/04/06 08:16:52;;;;;;;22.77;18.20;;;;;;;11.01;76.46;99314.28;5022813;28;20479;-78
2022/04/06 08:19:17;;;;;;;21.50;16.80;;;;;;;10.51;76.04;99320.19;5022398;28;20225;-78
2022/04/06 08:21:42;;;;;;;21.30;17.63;;;;;;;10.56;76.36;99318.38;5022804;28;20204;-78
2022/04/06 08:24:08;;;;;;;20.80;17.63;;;;;;;10.83;75.33;99311.06;5022426;28;20253;-79
2022/04/06 08:26:34;;;;;;;18.73;16.20;;;;;;;10.51;75.61;99314.13;5022115;28;20236;-77
2022/04/06 08:28:59;;;;;;;26.53;18.43;;;;;;;10.47;76.13;99313.28;5022379;28;20163;-80
2022/04/06 08:31:24;;;;;;;25.10;18.20;;;;;;;10.86;75.32;99304.94;5022074;28;20391;-78
2022/04/06 08:33:50;;;;;;;24.73;16.90;;;;;;;10.74;75.72;99306.84;5022493;28;20175;-78
2022/04/06 08:36:20;;;;;;;21.20;16.70;;;;;;;10.75;75.56;99323.34;5025923;28;20206;-80
2022/04/06 08:38:46;;;;;;;25.40;17.13;;;;;;;10.72;75.43;99308.59;5021349;28;20171;-79
2022/04/06 08:41:15;;;;;;;21.40;18.23;;;;;;;10.78;74.53;99305.94;5020863;28;20425;-78
2022/04/06 08:43:41;;;;;;;19.53;17.27;;;;;;;11.01;74.27;99315.13;5021480;28;20179;-79
2022/04/06 08:46:09;;;;;;;22.37;16.87;;;;;;;10.88;73.82;99304.03;5022014;28;20425;-77
2022/04/06 08:48:38;;;;;;;20.97;16.20;;;;;;;11.16;73.44;99298.38;5021580;28;20399;-75
2022/04/06 08:51:08;;;;;;;17.90;15.70;;;;;;;11.03;73.58;99307.31;5020715;28;20440;-77
2022/04/06 08:53:34;;;;;;;20.17;16.20;;;;;;;10.80;73.89;99303.28;5019865;28;20424;-76
2022/04/06 08:56:00;;;;;;;20.63;15.50;;;;;;;10.91;73.38;99305.75;5020498;28;20499;-76
2022/04/06 08:58:25;;;;;;;19.30;14.70;;;;;;;10.65;73.58;99306.97;5021654;28;20460;-77
2022/04/06 09:00:50;;;;;;;20.77;16.40;;;;;;;11.46;72.61;99307.47;5021598;28;20202;-77
2022/04/06 09:03:16;;;;;;;15.23;13.60;;;;;;;10.97;72.68;99305.63;5020944;28;20227;-76
2022/04/06 09:05:42;;;;;;;23.10;13.77;;;;;;;10.77;73.31;99318.97;5021438;28;20159;-75
2022/04/06 09:08:07;;;;;;;20.10;14.80;;;;;;;10.93;72.90;99306.56;5021372;28;20204;-73
2022/04/06 09:10:35;;;;;;;19.73;13.57;;;;;;;10.80;73.40;99313.72;5020928;28;20175;-76
2022/04/06 09:13:20;;;;;;;19.63;13.67;;;;;;;10.82;73.66;99308.47;5021296;28;20177;-75
2022/04/06 09:15:46;;;;;;;15.70;14.03;;;;;;;11.10;72.94;99317.59;5020939;28;20524;-74
2022/04/06 09:18:11;;;;;;;15.30;13.43;;;;;;;11.15;72.25;99306.25;5020856;28;20763;-75
2022/04/06 09:20:36;;;;;;;14.40;12.90;;;;;;;11.13;72.28;99311.47;5020844;28;20177;-76
2022/04/06 09:23:03;;;;;;;14.57;13.10;;;;;;;10.63;73.26;99308.72;5021252;28;20308;-75
2022/04/06 09:25:39;;;;;;;15.30;12.53;;;;;;;10.82;73.15;99308.47;5021472;28;20163;-76
2022/04/06 09:28:06;;;;;;;15.90;13.27;;;;;;;10.87;73.14;99311.88;5020778;28;20646;-76
2022/04/06 09:30:34;;;;;;;16.97;12.60;;;;;;;11.26;72.76;99310.41;5021000;28;20467;-77
2022/04/06 09:33:03;;;;;;;13.63;12.30;;;;;;;10.86;72.74;99315.38;5021475;28;20380;-75
2022/04/06 09:35:30;;;;;;;14.07;12.67;;;;;;;10.68;73.67;99314.75;5024998;28;20457;-76
2022/04/06 09:38:12;;;;;;;15.17;12.80;;;;;;;10.76;73.32;99315.50;5025159;28;20521;-76
2022/04/06 09:40:40;;;;;;;15.37;11.67;;;;;;;10.57;74.33;99324.47;5021443;28;20384;-76
2022/04/06 09:43:09;;;;;;;13.87;12.40;;;;;;;10.61;74.37;99316.56;5020818;28;20396;-79
2022/04/06 09:48:18;;;;;;;16.10;12.20;;;;;;;10.56;79.93;99318.38;5020903;28;20509;-77
2022/04/06 09:50:56;;;;;;;16.40;11.30;;;;;;;10.58;76.95;99319.22;5020649;28;20436;-78
2022/04/06 09:53:26;;;;;;;16.80;12.80;;;;;;;11.21;76.30;99316.59;5021024;28;20544;-79
2022/04/06 09:55:53;;;;;;;17.33;13.00;;;;;;;10.42;78.09;99315.97;5020569;28;20506;-77
2022/04/06 09:58:20;;;;;;;16.43;12.67;;;;;;;10.32;78.50;99311.69;5020776;28;20479;-77
2022/04/06 10:00:46;;;;;;;13.20;11.60;;;;;;;10.33;78.54;99316.03;5019158;28;20410;-77
2022/04/06 10:03:15;;;;;;;14.80;11.30;;;;;;;10.00;79.55;99305.16;5019398;28;20853;-80
2022/04/06 10:05:42;;;;;;;16.00;13.07;;;;;;;10.47;79.31;99321.09;5020031;28;20436;-78
2022/04/06 10:08:09;;;;;;;15.57;12.70;;;;;;;10.42;78.97;99318.56;5019633;28;20388;-79
2022/04/06 10:10:40;;;;;;;13.80;11.93;;;;;;;10.33;79.80;99317.78;5020028;28;20414;-77
2022/04/06 10:13:07;;;;;;;14.03;11.23;;;;;;;10.31;79.05;99317.81;5020152;28;20435;-75
2022/04/06 10:15:34;;;;;;;11.93;9.80;;;;;;;9.91;79.16;99318.25;5019732;28;20461;-75
2022/04/06 10:18:00;;;;;;;13.90;11.20;;;;;;;10.39;78.24;99304.69;5019795;28;20417;-76
2022/04/06 10:20:30;;;;;;;12.13;10.87;;;;;;;10.34;78.60;99312.56;5019563;28;20416;-74
2022/04/06 10:23:13;;;;;;;11.97;10.77;;;;;;;10.44;78.69;99313.34;5018915;28;20417;-74
2022/04/06 10:25:44;;;;;;;15.77;11.40;;;;;;;10.50;78.98;99312.38;5019597;28;20421;-73
2022/04/06 10:28:11;;;;;;;12.90;11.50;;;;;;;10.54;79.30;99298.44;5019847;28;20391;-76
2022/04/06 10:30:36;;;;;;;13.57;11.30;;;;;;;10.68;79.30;99299.13;5019668;28;20414;-75
2022/04/06 10:33:17;;;;;;;14.13;12.13;;;;;;;10.42;79.63;99307.28;5019436;28;20806;-72
2022/04/06 10:35:43;;;;;;;20.30;16.40;;;;;;;10.75;79.92;99298.13;5018936;28;20207;-73
2022/04/06 10:38:08;;;;;;;15.10;12.83;;;;;;;10.36;81.16;99292.56;5018513;28;20821;-72
2022/04/06 10:40:43;;;;;;;17.83;14.33;;;;;;;10.59;81.56;99292.28;5019181;28;20229;-71
2022/04/06 10:43:36;;;;;;;16.13;13.77;;;;;;;10.88;80.95;99288.41;5019634;28;20615;-72
2022/04/06 10:46:06;;;;;;;15.53;13.37;;;;;;;10.77;80.74;99291.16;5019085;28;20409;-74
2022/04/06 10:48:31;;;;;;;18.20;13.17;;;;;;;10.22;81.75;99292.72;5019069;28;20698;-74
2022/04/06 10:51:26;;;;;;;13.70;12.37;;;;;;;10.45;83.03;99284.66;5018536;28;20404;-74
2022/04/06 10:53:51;;;;;;;15.00;12.87;;;;;;;10.20;83.80;99284.09;5019105;28;20171;-74
2022/04/06 10:56:17;;;;;;;14.10;12.60;;;;;;;10.28;83.65;99281.38;5019031;28;20471;-74
2022/04/06 10:58:57;;;;;;;15.10;13.43;;;;;;;10.36;82.82;99269.13;5019448;28;20254;-74
2022/04/06 11:01:29;;;;;;;15.23;12.60;;;;;;;10.41;81.65;99267.34;5018577;28;20186;-76
2022/04/06 11:03:58;;;;;;;14.40;13.00;;;;;;;10.66;80.19;99261.78;5018959;28;20709;-77
2022/04/06 11:06:45;;;;;;;13.77;12.37;;;;;;;11.00;78.60;99261.28;5018972;28;20822;-77
2022/04/06 11:12:21;;;;;;;13.90;12.30;;;;;;;10.97;77.35;99242.22;5018775;28;20416;-75
2022/04/06 11:14:48;;;;;;;14.57;12.07;;;;;;;10.41;77.45;99256.91;5018556;28;20459;-77
2022/04/06 11:17:33;;;;;;;14.93;11.20;;;;;;;10.86;76.36;99253.66;5019118;28;20420;-76
2022/04/06 11:19:59;;;;;;;13.50;11.73;;;;;;;11.13;75.42;99243.66;5018028;28;20387;-76
2022/04/06 11:22:25;;;;;;;12.57;11.13;;;;;;;10.92;75.50;99248.34;5019093;28;20651;-77
2022/04/06 11:24:50;;;;;;;12.60;11.50;;;;;;;10.72;75.57;99246.06;5018210;28;20418;-77
2022/04/06 11:27:27;;;;;;;14.77;11.53;;;;;;;10.90;74.85;99254.47;5018775;28;20426;-77
2022/04/06 11:30:08;;;;;;;12.03;10.83;;;;;;;10.79;75.18;99252.03;5019050;28;20171;-75
2022/04/06 11:32:34;;;;;;;13.70;11.67;;;;;;;10.93;75.14;99257.91;5019360;28;20417;-76